UAE29V OMDB-EDDF
Flight info
| Callsign | UAE29V |
|---|---|
| Flight time | N/A |
| Altitude | 33000 |
| Route | ANVIX L223 TARDI N629 BOTAM Y855 LAKLU/N0495F340 Q204 NALKI G652 TOKRA DCT ALROK DCT BOSOB DCT ITRUX Y511 PMA Z712 IVUDA/N0493F360 Z712 WEJ L677 GESON Q777 RASDA DCT OTHON DCT VAXOS DCT RDS UL609 MES DCT EVIVI DCT OKANA DCT BABIT/N0476F380 DCT ARSIN DCT SUBEN T161 DEBHI DEBHI1C |
| Aircraft | B77W/H-SDE1E2E3FGHIJ2J3J4J5M1RWXY/LB1D1 |
Departure
| Time | 2026-04-24 12:06 |
|---|---|
| Airport | Dubai International Airport (OMDB) |
Arrival
| Time | N/A |
|---|---|
| Airport | Frankfurt Main Airport (EDDF) |
| Time | Latitude | Longitude | Altitude | Speed | Heading |
|---|---|---|---|---|---|
| 2026-04-24 11:45 | 25.24211 | 55.37594 | 27 ft | 0 kts | 249° |
| 2026-04-24 11:56 | 25.24211 | 55.37595 | 27 ft | 2 kts | 249° |
| 2026-04-24 11:56 | 25.24218 | 55.37611 | 26 ft | 2 kts | 245° |
| 2026-04-24 11:57 | 25.24225 | 55.37628 | 25 ft | 2 kts | 240° |
| 2026-04-24 11:57 | 25.24226 | 55.37630 | 25 ft | 0 kts | 239° |
| 2026-04-24 11:58 | 25.24227 | 55.37632 | 26 ft | 2 kts | 238° |
| 2026-04-24 11:58 | 25.24236 | 55.37647 | 27 ft | 2 kts | 230° |
| 2026-04-24 11:58 | 25.24248 | 55.37660 | 24 ft | 2 kts | 218° |
| 2026-04-24 11:58 | 25.24262 | 55.37670 | 25 ft | 2 kts | 196° |
| 2026-04-24 11:59 | 25.24278 | 55.37672 | 26 ft | 2 kts | 165° |
| 2026-04-24 11:59 | 25.24291 | 55.37665 | 24 ft | 1 kts | 137° |
| 2026-04-24 11:59 | 25.24295 | 55.37662 | 24 ft | 0 kts | 128° |
| 2026-04-24 12:00 | 25.24302 | 55.37648 | 24 ft | 1 kts | 119° |
| 2026-04-24 12:00 | 25.24303 | 55.37645 | 26 ft | 0 kts | 120° |
| 2026-04-24 12:03 | 25.24299 | 55.37653 | 27 ft | 6 kts | 120° |
| 2026-04-24 12:03 | 25.24268 | 55.37709 | 27 ft | 9 kts | 120° |
| 2026-04-24 12:03 | 25.24276 | 55.37774 | 27 ft | 9 kts | 49° |
| 2026-04-24 12:03 | 25.24331 | 55.37822 | 27 ft | 11 kts | 34° |
| 2026-04-24 12:04 | 25.24397 | 55.37872 | 27 ft | 12 kts | 34° |
| 2026-04-24 12:04 | 25.24498 | 55.37947 | 27 ft | 19 kts | 35° |
| 2026-04-24 12:04 | 25.24601 | 55.38025 | 27 ft | 15 kts | 33° |
| 2026-04-24 12:04 | 25.24655 | 55.38063 | 27 ft | 6 kts | 31° |
| 2026-04-24 12:05 | 25.24724 | 55.38104 | 27 ft | 16 kts | 15° |
| 2026-04-24 12:05 | 25.24803 | 55.38034 | 27 ft | 15 kts | 299° |
| 2026-04-24 12:05 | 25.24855 | 55.37936 | 27 ft | 17 kts | 303° |
| 2026-04-24 12:05 | 25.24986 | 55.37702 | 27 ft | 67 kts | 302° |
| 2026-04-24 12:06 | 25.25365 | 55.37020 | 27 ft | 140 kts | 301° |
| 2026-04-24 12:06 | 25.25977 | 55.35910 | 66 ft | 192 kts | 302° |
| 2026-04-24 12:06 | 25.26657 | 55.34652 | 765 ft | 192 kts | 304° |
| 2026-04-24 12:06 | 25.27367 | 55.33372 | 1387 ft | 198 kts | 304° |
| 2026-04-24 12:07 | 25.28092 | 55.32076 | 2076 ft | 197 kts | 303° |
| 2026-04-24 12:07 | 25.28821 | 55.30778 | 2594 ft | 204 kts | 302° |
| 2026-04-24 12:07 | 25.29345 | 55.29256 | 2717 ft | 226 kts | 269° |
| 2026-04-24 12:07 | 25.28879 | 55.27581 | 3081 ft | 233 kts | 240° |
| 2026-04-24 12:08 | 25.28099 | 55.25976 | 3574 ft | 242 kts | 244° |
| 2026-04-24 12:08 | 25.27369 | 55.24296 | 4276 ft | 241 kts | 245° |
| 2026-04-24 12:08 | 25.26656 | 55.22631 | 5030 ft | 239 kts | 245° |
| 2026-04-24 12:08 | 25.25944 | 55.20963 | 5699 ft | 241 kts | 246° |
| 2026-04-24 12:09 | 25.25226 | 55.19278 | 6357 ft | 243 kts | 246° |
| 2026-04-24 12:09 | 25.24298 | 55.17721 | 6869 ft | 249 kts | 222° |
| 2026-04-24 12:09 | 25.22741 | 55.16850 | 7421 ft | 257 kts | 195° |
| 2026-04-24 12:09 | 25.20941 | 55.16752 | 7984 ft | 263 kts | 180° |
| 2026-04-24 12:10 | 25.19133 | 55.17154 | 8466 ft | 271 kts | 154° |
| 2026-04-24 12:10 | 25.17690 | 55.18559 | 8828 ft | 290 kts | 123° |
| 2026-04-24 12:10 | 25.16747 | 55.20581 | 9146 ft | 302 kts | 118° |
| 2026-04-24 12:11 | 25.14798 | 55.24782 | 10370 ft | 310 kts | 120° |
| 2026-04-24 12:11 | 25.13792 | 55.26889 | 11072 ft | 311 kts | 120° |
| 2026-04-24 12:11 | 25.12776 | 55.29013 | 11742 ft | 315 kts | 120° |
| 2026-04-24 12:11 | 25.11749 | 55.31150 | 12474 ft | 316 kts | 121° |
| 2026-04-24 12:12 | 25.11065 | 55.32572 | 12947 ft | 317 kts | 121° |
| 2026-04-24 12:12 | 25.09758 | 55.35519 | 13896 ft | 322 kts | 117° |
| 2026-04-24 12:12 | 25.08842 | 55.37792 | 14532 ft | 326 kts | 116° |
| 2026-04-24 12:12 | 25.08227 | 55.39314 | 14951 ft | 329 kts | 116° |
| 2026-04-24 12:13 | 25.07281 | 55.41633 | 15593 ft | 334 kts | 116° |
| 2026-04-24 12:13 | 25.06341 | 55.44028 | 15951 ft | 350 kts | 115° |
| 2026-04-24 12:13 | 25.05364 | 55.46586 | 16102 ft | 372 kts | 114° |
| 2026-04-24 12:13 | 25.04334 | 55.49290 | 16261 ft | 393 kts | 114° |
| 2026-04-24 12:14 | 25.03240 | 55.52140 | 16402 ft | 414 kts | 114° |
| 2026-04-24 12:14 | 25.02091 | 55.55116 | 16671 ft | 429 kts | 115° |
| 2026-04-24 12:14 | 25.00743 | 55.58079 | 17151 ft | 436 kts | 121° |
| 2026-04-24 12:14 | 24.99146 | 55.60938 | 17810 ft | 439 kts | 124° |
| 2026-04-24 12:15 | 24.97493 | 55.63793 | 18412 ft | 444 kts | 123° |
| 2026-04-24 12:15 | 24.95886 | 55.66668 | 18945 ft | 448 kts | 122° |
| 2026-04-24 12:15 | 24.94281 | 55.69623 | 19519 ft | 451 kts | 122° |
| 2026-04-24 12:15 | 24.92575 | 55.72529 | 20114 ft | 452 kts | 127° |
| 2026-04-24 12:16 | 24.90700 | 55.75324 | 20697 ft | 455 kts | 129° |
| 2026-04-24 12:16 | 24.88770 | 55.78099 | 21223 ft | 459 kts | 129° |
| 2026-04-24 12:16 | 24.86838 | 55.80923 | 21718 ft | 464 kts | 129° |
| 2026-04-24 12:16 | 24.84917 | 55.83800 | 22193 ft | 468 kts | 128° |
| 2026-04-24 12:17 | 24.82991 | 55.86701 | 22783 ft | 470 kts | 128° |
| 2026-04-24 12:17 | 24.81042 | 55.89600 | 23322 ft | 472 kts | 129° |
| 2026-04-24 12:17 | 24.79067 | 55.92519 | 23718 ft | 476 kts | 129° |
| 2026-04-24 12:17 | 24.76989 | 55.95355 | 24115 ft | 476 kts | 136° |
| 2026-04-24 12:18 | 24.74577 | 55.97857 | 24521 ft | 477 kts | 141° |
| 2026-04-24 12:18 | 24.72050 | 56.00249 | 24908 ft | 481 kts | 141° |
| 2026-04-24 12:18 | 24.69548 | 56.02707 | 25278 ft | 484 kts | 140° |
| 2026-04-24 12:18 | 24.67067 | 56.05238 | 25646 ft | 489 kts | 139° |
| 2026-04-24 12:19 | 24.64582 | 56.07803 | 26058 ft | 491 kts | 139° |
| 2026-04-24 12:19 | 24.62086 | 56.10372 | 26480 ft | 493 kts | 139° |
| 2026-04-24 12:19 | 24.59570 | 56.12949 | 26890 ft | 496 kts | 139° |
| 2026-04-24 12:19 | 24.57062 | 56.15566 | 27262 ft | 499 kts | 136° |
| 2026-04-24 12:20 | 24.54724 | 56.18402 | 27608 ft | 503 kts | 132° |
| 2026-04-24 12:20 | 24.52452 | 56.21339 | 27959 ft | 506 kts | 132° |
| 2026-04-24 12:20 | 24.50172 | 56.24294 | 28290 ft | 509 kts | 132° |
| 2026-04-24 12:20 | 24.47869 | 56.27263 | 28599 ft | 512 kts | 132° |
| 2026-04-24 12:21 | 24.45580 | 56.30197 | 28890 ft | 514 kts | 132° |
| 2026-04-24 12:21 | 24.43238 | 56.33180 | 29151 ft | 517 kts | 132° |
| 2026-04-24 12:21 | 24.40877 | 56.36176 | 29423 ft | 520 kts | 132° |
| 2026-04-24 12:21 | 24.38507 | 56.39182 | 29703 ft | 522 kts | 132° |
| 2026-04-24 12:22 | 24.36129 | 56.42199 | 30032 ft | 523 kts | 132° |
| 2026-04-24 12:22 | 24.33755 | 56.45212 | 30388 ft | 522 kts | 132° |
| 2026-04-24 12:22 | 24.31385 | 56.48216 | 30738 ft | 521 kts | 132° |
| 2026-04-24 12:22 | 24.29065 | 56.51265 | 31064 ft | 522 kts | 129° |
| 2026-04-24 12:23 | 24.26914 | 56.54469 | 31367 ft | 522 kts | 127° |
| 2026-04-24 12:23 | 24.24793 | 56.57704 | 31657 ft | 523 kts | 127° |
| 2026-04-24 12:23 | 24.22678 | 56.60938 | 31990 ft | 522 kts | 127° |
| 2026-04-24 12:23 | 24.20558 | 56.64166 | 32316 ft | 522 kts | 127° |
| 2026-04-24 12:24 | 24.18429 | 56.67388 | 32622 ft | 522 kts | 127° |
| 2026-04-24 12:24 | 24.16292 | 56.70604 | 32902 ft | 522 kts | 127° |
| 2026-04-24 12:24 | 24.14153 | 56.73817 | 33174 ft | 522 kts | 127° |
| 2026-04-24 12:24 | 24.12011 | 56.77032 | 33486 ft | 522 kts | 127° |
| 2026-04-24 12:25 | 24.09867 | 56.80250 | 33764 ft | 523 kts | 128° |
| 2026-04-24 12:25 | 24.05266 | 56.86409 | 33827 ft | 522 kts | 142° |
| 2026-04-24 12:25 | 24.02329 | 56.88697 | 33864 ft | 517 kts | 153° |
| 2026-04-24 12:26 | 23.99093 | 56.90361 | 33833 ft | 512 kts | 164° |
| 2026-04-24 12:26 | 23.92260 | 56.92179 | 33852 ft | 505 kts | 171° |
| 2026-04-24 12:27 | 23.85396 | 56.93922 | 33861 ft | 507 kts | 170° |
| 2026-04-24 12:27 | 23.78527 | 56.95747 | 33861 ft | 509 kts | 169° |
| 2026-04-24 12:28 | 23.71646 | 56.97600 | 33871 ft | 510 kts | 169° |
| 2026-04-24 12:28 | 23.64753 | 56.99450 | 33883 ft | 510 kts | 169° |
| 2026-04-24 12:29 | 23.57907 | 57.01281 | 33867 ft | 510 kts | 169° |
| 2026-04-24 12:29 | 23.51018 | 57.03121 | 33893 ft | 509 kts | 169° |
| 2026-04-24 12:30 | 23.44137 | 57.04958 | 33897 ft | 509 kts | 169° |
| 2026-04-24 12:30 | 23.37178 | 57.05956 | 33899 ft | 502 kts | 183° |
| 2026-04-24 12:31 | 23.30294 | 57.05128 | 33899 ft | 496 kts | 196° |
| 2026-04-24 12:31 | 23.23568 | 57.03452 | 33897 ft | 496 kts | 196° |
| 2026-04-24 12:32 | 23.16821 | 57.01821 | 33907 ft | 497 kts | 195° |
| 2026-04-24 12:32 | 23.10051 | 57.00235 | 33891 ft | 498 kts | 195° |
| 2026-04-24 12:33 | 23.03273 | 56.98655 | 33904 ft | 498 kts | 195° |
| 2026-04-24 12:33 | 22.96495 | 56.97058 | 33887 ft | 499 kts | 195° |
| 2026-04-24 12:34 | 22.89708 | 56.95437 | 33884 ft | 499 kts | 195° |
| 2026-04-24 12:34 | 22.83356 | 56.92817 | 33879 ft | 485 kts | 220° |
| 2026-04-24 12:34 | 22.80920 | 56.90329 | 33876 ft | 480 kts | 234° |
| 2026-04-24 12:35 | 22.79124 | 56.87314 | 33872 ft | 474 kts | 246° |
| 2026-04-24 12:35 | 22.76185 | 56.80900 | 33866 ft | 477 kts | 246° |
| 2026-04-24 12:36 | 22.73184 | 56.74471 | 33856 ft | 478 kts | 245° |
| 2026-04-24 12:36 | 22.70127 | 56.68070 | 33837 ft | 478 kts | 245° |
| 2026-04-24 12:37 | 22.67054 | 56.61687 | 33831 ft | 477 kts | 245° |
| 2026-04-24 12:37 | 22.64012 | 56.55371 | 33826 ft | 475 kts | 245° |
| 2026-04-24 12:38 | 22.60941 | 56.48995 | 33822 ft | 474 kts | 245° |
| 2026-04-24 12:38 | 22.57917 | 56.42722 | 33824 ft | 473 kts | 245° |
| 2026-04-24 12:39 | 22.51824 | 56.30131 | 33815 ft | 472 kts | 244° |
| 2026-04-24 12:40 | 22.48770 | 56.23842 | 33809 ft | 472 kts | 244° |
| 2026-04-24 12:40 | 22.45717 | 56.17560 | 33807 ft | 472 kts | 244° |
| 2026-04-24 12:41 | 22.42666 | 56.11285 | 33808 ft | 472 kts | 244° |
| 2026-04-24 12:41 | 22.39610 | 56.05009 | 33805 ft | 471 kts | 244° |
| 2026-04-24 12:42 | 22.36551 | 55.98745 | 33800 ft | 471 kts | 244° |
| 2026-04-24 12:42 | 22.33476 | 55.92491 | 33797 ft | 472 kts | 244° |
| 2026-04-24 12:43 | 22.30396 | 55.86234 | 33795 ft | 472 kts | 244° |
| 2026-04-24 12:43 | 22.27318 | 55.79980 | 33794 ft | 472 kts | 244° |
| 2026-04-24 12:44 | 22.24237 | 55.73726 | 33790 ft | 471 kts | 244° |
| 2026-04-24 12:44 | 22.24134 | 55.73517 | 33791 ft | 471 kts | 244° |
| 2026-04-24 12:45 | 22.21307 | 55.67773 | 33785 ft | 471 kts | 244° |
| 2026-04-24 12:45 | 22.18238 | 55.61536 | 33786 ft | 470 kts | 245° |
| 2026-04-24 12:46 | 22.15978 | 55.54969 | 33785 ft | 466 kts | 257° |
| 2026-04-24 12:46 | 22.14928 | 55.48104 | 33791 ft | 463 kts | 266° |
| 2026-04-24 12:47 | 22.14442 | 55.41738 | 33783 ft | 463 kts | 266° |
| 2026-04-24 12:47 | 22.13914 | 55.34819 | 33778 ft | 462 kts | 266° |
| 2026-04-24 12:48 | 22.13361 | 55.27907 | 33778 ft | 462 kts | 266° |
| 2026-04-24 12:48 | 22.12790 | 55.20994 | 33778 ft | 462 kts | 266° |
| 2026-04-24 12:49 | 22.12213 | 55.14099 | 33772 ft | 461 kts | 265° |
| 2026-04-24 12:49 | 22.11634 | 55.07212 | 33776 ft | 461 kts | 265° |
| 2026-04-24 12:50 | 22.11053 | 55.00332 | 33772 ft | 460 kts | 265° |
| 2026-04-24 12:50 | 22.10472 | 54.93465 | 33773 ft | 460 kts | 265° |
| 2026-04-24 12:51 | 22.09887 | 54.86594 | 33774 ft | 460 kts | 265° |
| 2026-04-24 12:51 | 22.09300 | 54.79729 | 33770 ft | 460 kts | 265° |
| 2026-04-24 12:52 | 22.08710 | 54.72863 | 33773 ft | 460 kts | 265° |
| 2026-04-24 12:52 | 22.08115 | 54.65987 | 33775 ft | 461 kts | 265° |
| 2026-04-24 12:53 | 22.07517 | 54.59101 | 33768 ft | 462 kts | 265° |
| 2026-04-24 12:53 | 22.06915 | 54.52197 | 33770 ft | 463 kts | 265° |
| 2026-04-24 12:54 | 22.06313 | 54.45333 | 33771 ft | 464 kts | 265° |
| 2026-04-24 12:54 | 22.05702 | 54.38403 | 33777 ft | 465 kts | 265° |
| 2026-04-24 12:55 | 22.05087 | 54.31457 | 33767 ft | 466 kts | 265° |
| 2026-04-24 12:55 | 22.04468 | 54.24502 | 33770 ft | 466 kts | 265° |
| 2026-04-24 12:56 | 22.03847 | 54.17548 | 33772 ft | 466 kts | 265° |
| 2026-04-24 12:56 | 22.03223 | 54.10609 | 33775 ft | 465 kts | 265° |
| 2026-04-24 12:57 | 22.02598 | 54.03688 | 33769 ft | 464 kts | 265° |
| 2026-04-24 12:57 | 22.01972 | 53.96779 | 33773 ft | 463 kts | 265° |
| 2026-04-24 12:58 | 22.01342 | 53.89869 | 33777 ft | 463 kts | 265° |
| 2026-04-24 12:58 | 22.00711 | 53.82975 | 33774 ft | 463 kts | 265° |
| 2026-04-24 12:59 | 22.00184 | 53.77243 | 33777 ft | 463 kts | 265° |
| 2026-04-24 12:59 | 21.99442 | 53.69218 | 33774 ft | 463 kts | 265° |
| 2026-04-24 13:00 | 21.98905 | 53.63431 | 33778 ft | 464 kts | 265° |
| 2026-04-24 13:00 | 21.98261 | 53.56515 | 33775 ft | 464 kts | 265° |
| 2026-04-24 13:01 | 21.97613 | 53.49595 | 33773 ft | 464 kts | 265° |
| 2026-04-24 13:01 | 21.96966 | 53.42710 | 33776 ft | 464 kts | 265° |
| 2026-04-24 13:02 | 21.96312 | 53.35790 | 33778 ft | 464 kts | 265° |
| 2026-04-24 13:02 | 21.95655 | 53.28867 | 33776 ft | 464 kts | 265° |
| 2026-04-24 13:03 | 21.94996 | 53.21952 | 33778 ft | 464 kts | 265° |
| 2026-04-24 13:03 | 21.94334 | 53.15035 | 33775 ft | 464 kts | 265° |
| 2026-04-24 13:04 | 21.93668 | 53.08117 | 33776 ft | 464 kts | 265° |
| 2026-04-24 13:04 | 21.93001 | 53.01203 | 33776 ft | 464 kts | 265° |
| 2026-04-24 13:05 | 21.92330 | 52.94285 | 33773 ft | 464 kts | 265° |
| 2026-04-24 13:05 | 21.91657 | 52.87376 | 33774 ft | 464 kts | 265° |
| 2026-04-24 13:06 | 21.90981 | 52.80466 | 33776 ft | 464 kts | 265° |
| 2026-04-24 13:06 | 21.90376 | 52.73551 | 33769 ft | 463 kts | 269° |
| 2026-04-24 13:07 | 21.90698 | 52.66678 | 33780 ft | 463 kts | 277° |
| 2026-04-24 13:07 | 21.91895 | 52.59877 | 33786 ft | 462 kts | 281° |
| 2026-04-24 13:08 | 21.93182 | 52.53094 | 33780 ft | 462 kts | 281° |
| 2026-04-24 13:08 | 21.94450 | 52.46308 | 33774 ft | 462 kts | 281° |
| 2026-04-24 13:09 | 21.96319 | 52.36130 | 33778 ft | 461 kts | 281° |
| 2026-04-24 13:09 | 21.97555 | 52.29351 | 33778 ft | 461 kts | 281° |
| 2026-04-24 13:10 | 21.98787 | 52.22577 | 33772 ft | 461 kts | 281° |
| 2026-04-24 13:10 | 22.00018 | 52.15797 | 33775 ft | 461 kts | 281° |
| 2026-04-24 13:11 | 22.01245 | 52.09025 | 33775 ft | 461 kts | 281° |
| 2026-04-24 13:11 | 22.02470 | 52.02249 | 33786 ft | 460 kts | 281° |
| 2026-04-24 13:12 | 22.03690 | 51.95485 | 33782 ft | 459 kts | 280° |
| 2026-04-24 13:12 | 22.04902 | 51.88741 | 33780 ft | 458 kts | 280° |
| 2026-04-24 13:13 | 22.06108 | 51.82018 | 33768 ft | 457 kts | 280° |
| 2026-04-24 13:13 | 22.07301 | 51.75353 | 33789 ft | 455 kts | 280° |
| 2026-04-24 13:14 | 22.08496 | 51.68661 | 33767 ft | 453 kts | 280° |
| 2026-04-24 13:14 | 22.09683 | 51.61993 | 33779 ft | 452 kts | 280° |
| 2026-04-24 13:15 | 22.10866 | 51.55337 | 33783 ft | 452 kts | 280° |
| 2026-04-24 13:15 | 22.12044 | 51.48690 | 33782 ft | 452 kts | 280° |
| 2026-04-24 13:16 | 22.13221 | 51.42033 | 33789 ft | 452 kts | 280° |
| 2026-04-24 13:16 | 22.14398 | 51.35355 | 33796 ft | 454 kts | 280° |
| 2026-04-24 13:17 | 22.15576 | 51.28658 | 33789 ft | 455 kts | 280° |
| 2026-04-24 13:17 | 22.16756 | 51.21936 | 33787 ft | 456 kts | 280° |
| 2026-04-24 13:18 | 22.17928 | 51.15243 | 33790 ft | 457 kts | 280° |
| 2026-04-24 13:18 | 22.19104 | 51.08508 | 33781 ft | 457 kts | 280° |
| 2026-04-24 13:19 | 22.20276 | 51.01778 | 33792 ft | 456 kts | 280° |
| 2026-04-24 13:19 | 22.21444 | 50.95055 | 33795 ft | 456 kts | 279° |
| 2026-04-24 13:20 | 22.22608 | 50.88334 | 33805 ft | 455 kts | 279° |
| 2026-04-24 13:20 | 22.23771 | 50.81610 | 33781 ft | 456 kts | 279° |
| 2026-04-24 13:21 | 22.24934 | 50.74862 | 33801 ft | 457 kts | 279° |
| 2026-04-24 13:21 | 22.26096 | 50.68101 | 33802 ft | 459 kts | 279° |
| 2026-04-24 13:22 | 22.27258 | 50.61329 | 33803 ft | 459 kts | 279° |
| 2026-04-24 13:22 | 22.28417 | 50.54554 | 33791 ft | 458 kts | 279° |
| 2026-04-24 13:23 | 22.29570 | 50.47796 | 33793 ft | 457 kts | 279° |
| 2026-04-24 13:23 | 22.30712 | 50.41089 | 33788 ft | 457 kts | 279° |
| 2026-04-24 13:24 | 22.31857 | 50.34343 | 33796 ft | 457 kts | 279° |
| 2026-04-24 13:24 | 22.33001 | 50.27589 | 33795 ft | 457 kts | 279° |
| 2026-04-24 13:25 | 22.34143 | 50.20823 | 33806 ft | 458 kts | 279° |
| 2026-04-24 13:25 | 22.35285 | 50.14041 | 33801 ft | 459 kts | 279° |
| 2026-04-24 13:26 | 22.36426 | 50.07250 | 33799 ft | 460 kts | 279° |
| 2026-04-24 13:26 | 22.37565 | 50.00450 | 33793 ft | 460 kts | 279° |
| 2026-04-24 13:27 | 22.38702 | 49.93649 | 33793 ft | 460 kts | 279° |
| 2026-04-24 13:27 | 22.39837 | 49.86838 | 33808 ft | 460 kts | 279° |
| 2026-04-24 13:28 | 22.40969 | 49.80028 | 33808 ft | 461 kts | 279° |
| 2026-04-24 13:28 | 22.42098 | 49.73216 | 33789 ft | 461 kts | 278° |
| 2026-04-24 13:29 | 22.43219 | 49.66431 | 33799 ft | 462 kts | 278° |
| 2026-04-24 13:29 | 22.44347 | 49.59589 | 33794 ft | 463 kts | 278° |
| 2026-04-24 13:30 | 22.45475 | 49.52727 | 33810 ft | 464 kts | 278° |
| 2026-04-24 13:30 | 22.46602 | 49.45858 | 33800 ft | 464 kts | 278° |
| 2026-04-24 13:31 | 22.47726 | 49.38983 | 33803 ft | 464 kts | 278° |
| 2026-04-24 13:31 | 22.48847 | 49.32108 | 33807 ft | 464 kts | 278° |
| 2026-04-24 13:32 | 22.49964 | 49.25244 | 33816 ft | 463 kts | 278° |
| 2026-04-24 13:32 | 22.51073 | 49.18401 | 33802 ft | 461 kts | 278° |
| 2026-04-24 13:33 | 22.52177 | 49.11578 | 33800 ft | 460 kts | 277° |
| 2026-04-24 13:33 | 22.53274 | 49.04775 | 33803 ft | 458 kts | 277° |
| 2026-04-24 13:34 | 22.54364 | 48.97997 | 33812 ft | 457 kts | 277° |
| 2026-04-24 13:34 | 22.55451 | 48.91221 | 33807 ft | 457 kts | 277° |
| 2026-04-24 13:35 | 22.56533 | 48.84454 | 33808 ft | 457 kts | 277° |
| 2026-04-24 13:35 | 22.57613 | 48.77681 | 33815 ft | 457 kts | 277° |
| 2026-04-24 13:36 | 22.58691 | 48.70901 | 33824 ft | 457 kts | 277° |
| 2026-04-24 13:36 | 22.59760 | 48.64160 | 33818 ft | 458 kts | 277° |
| 2026-04-24 13:37 | 22.60833 | 48.57377 | 33813 ft | 457 kts | 277° |
| 2026-04-24 13:37 | 22.61902 | 48.50601 | 33812 ft | 456 kts | 277° |
| 2026-04-24 13:38 | 22.62965 | 48.43840 | 33811 ft | 455 kts | 277° |
| 2026-04-24 13:38 | 22.64025 | 48.37080 | 33810 ft | 455 kts | 277° |
| 2026-04-24 13:39 | 22.65083 | 48.30317 | 33816 ft | 456 kts | 277° |
| 2026-04-24 13:39 | 22.66139 | 48.23545 | 33808 ft | 457 kts | 277° |
| 2026-04-24 13:40 | 22.67193 | 48.16764 | 33818 ft | 456 kts | 277° |
| 2026-04-24 13:40 | 22.68243 | 48.09995 | 33809 ft | 455 kts | 277° |
| 2026-04-24 13:41 | 22.69258 | 48.03244 | 33812 ft | 453 kts | 275° |
| 2026-04-24 13:41 | 22.69848 | 47.96475 | 33820 ft | 451 kts | 273° |
| 2026-04-24 13:42 | 22.70389 | 47.89713 | 33813 ft | 450 kts | 273° |
| 2026-04-24 13:42 | 22.70938 | 47.82957 | 33817 ft | 450 kts | 273° |
| 2026-04-24 13:43 | 22.71494 | 47.76199 | 33832 ft | 450 kts | 273° |
| 2026-04-24 13:43 | 22.72050 | 47.69432 | 33825 ft | 451 kts | 273° |
| 2026-04-24 13:44 | 22.72599 | 47.62708 | 33825 ft | 452 kts | 274° |